sensor_id;sensor_type;location;lat;lon;timestamp;pressure;altitude;pressure_sealevel;temperature;humidity
18784;BME280;9520;50.954;6.968;2022-09-04T00:00:00;100823.94;;;25.26;46.15
18784;BME280;9520;50.954;6.968;2022-09-04T00:00:33;100842.69;;;25.40;46.56
18784;BME280;9520;50.954;6.968;2022-09-04T00:01:05;100837.28;;;25.40;46.76
18784;BME280;9520;50.954;6.968;2022-09-04T00:01:36;100835.66;;;25.37;46.00
18784;BME280;9520;50.954;6.968;2022-09-04T00:02:15;100837.72;;;25.34;44.70
18784;BME280;9520;50.954;6.968;2022-09-04T00:03:03;100822.41;;;25.34;46.44
18784;BME280;9520;50.954;6.968;2022-09-04T00:03:35;100842.69;;;25.40;45.82
18784;BME280;9520;50.954;6.968;2022-09-04T00:04:10;100843.31;;;25.44;46.15
18784;BME280;9520;50.954;6.968;2022-09-04T00:04:41;100833.63;;;25.28;47.70
18784;BME280;9520;50.954;6.968;2022-09-04T00:05:12;100839.38;;;25.24;46.42
18784;BME280;9520;50.954;6.968;2022-09-04T00:05:43;100837.44;;;25.26;46.40
18784;BME280;9520;50.954;6.968;2022-09-04T00:06:14;100836.94;;;25.21;44.87
18784;BME280;9520;50.954;6.968;2022-09-04T00:06:45;100842.84;;;25.26;45.66
18784;BME280;9520;50.954;6.968;2022-09-04T00:07:16;100841.84;;;25.27;45.74
18784;BME280;9520;50.954;6.968;2022-09-04T00:07:54;100844.09;;;25.33;47.01
18784;BME280;9520;50.954;6.968;2022-09-04T00:08:47;100850.81;;;25.27;46.28
18784;BME280;9520;50.954;6.968;2022-09-04T00:09:17;100841.63;;;25.30;45.71
18784;BME280;9520;50.954;6.968;2022-09-04T00:09:50;100845.84;;;25.34;45.18
18784;BME280;9520;50.954;6.968;2022-09-04T00:10:18;100847.66;;;25.33;45.20
18784;BME280;9520;50.954;6.968;2022-09-04T00:10:49;100839.47;;;25.35;44.72
18784;BME280;9520;50.954;6.968;2022-09-04T00:11:24;100845.94;;;25.32;43.85
18784;BME280;9520;50.954;6.968;2022-09-04T00:11:54;100845.31;;;25.29;44.79
18784;BME280;9520;50.954;6.968;2022-09-04T00:12:23;100849.84;;;25.28;44.91
18784;BME280;9520;50.954;6.968;2022-09-04T00:12:52;100852.25;;;25.20;45.01
18784;BME280;9520;50.954;6.968;2022-09-04T00:13:19;100849.31;;;25.23;45.77
18784;BME280;9520;50.954;6.968;2022-09-04T00:13:46;100844.88;;;25.22;45.30
18784;BME280;9520;50.954;6.968;2022-09-04T00:14:14;100850.28;;;25.22;45.52
18784;BME280;9520;50.954;6.968;2022-09-04T00:14:42;100842.31;;;25.21;46.51
18784;BME280;9520;50.954;6.968;2022-09-04T00:15:12;100853.56;;;25.15;47.50
18784;BME280;9520;50.954;6.968;2022-09-04T00:15:40;100853.31;;;25.18;47.19
18784;BME280;9520;50.954;6.968;2022-09-04T00:16:07;100845.75;;;25.23;47.39
18784;BME280;9520;50.954;6.968;2022-09-04T00:16:36;100850.81;;;25.27;46.95
18784;BME280;9520;50.954;6.968;2022-09-04T00:17:07;100850.72;;;25.29;46.25
18784;BME280;9520;50.954;6.968;2022-09-04T00:17:36;100855.66;;;25.35;46.89
18784;BME280;9520;50.954;6.968;2022-09-04T00:18:05;100843.88;;;25.36;47.25
18784;BME280;9520;50.954;6.968;2022-09-04T00:18:34;100848.28;;;25.37;46.26
18784;BME280;9520;50.954;6.968;2022-09-04T00:19:02;100852.72;;;25.38;47.02
18784;BME280;9520;50.954;6.968;2022-09-04T00:19:34;100845.66;;;25.12;46.20
18784;BME280;9520;50.954;6.968;2022-09-04T00:19:59;100852.13;;;25.22;46.89
18784;BME280;9520;50.954;6.968;2022-09-04T00:20:30;100855.16;;;25.17;47.78
18784;BME280;9520;50.954;6.968;2022-09-04T00:20:57;100851.59;;;25.17;47.01
18784;BME280;9520;50.954;6.968;2022-09-04T00:21:29;100849.66;;;25.19;47.03
18784;BME280;9520;50.954;6.968;2022-09-04T00:21:56;100857.19;;;25.26;48.08
18784;BME280;9520;50.954;6.968;2022-09-04T00:22:29;100852.66;;;25.27;46.72
18784;BME280;9520;50.954;6.968;2022-09-04T00:22:57;100854.03;;;25.32;46.24
18784;BME280;9520;50.954;6.968;2022-09-04T00:23:26;100858.38;;;25.35;46.88
18784;BME280;9520;50.954;6.968;2022-09-04T00:23:54;100841.63;;;25.30;47.06
18784;BME280;9520;50.954;6.968;2022-09-04T00:24:21;100856.63;;;25.34;46.26
18784;BME280;9520;50.954;6.968;2022-09-04T00:24:50;100851.13;;;25.35;46.75
18784;BME280;9520;50.954;6.968;2022-09-04T00:25:21;100863.63;;;25.36;47.47
18784;BME280;9520;50.954;6.968;2022-09-04T00:25:54;100861.16;;;25.33;46.00
18784;BME280;9520;50.954;6.968;2022-09-04T00:26:27;100857.50;;;25.34;46.22
18784;BME280;9520;50.954;6.968;2022-09-04T00:26:57;100863.63;;;25.36;46.48
18784;BME280;9520;50.954;6.968;2022-09-04T00:27:22;100867.44;;;25.34;46.67
18784;BME280;9520;50.954;6.968;2022-09-04T00:27:48;100860.31;;;25.33;46.24
18784;BME280;9520;50.954;6.968;2022-09-04T00:28:18;100862.78;;;25.36;47.00
18784;BME280;9520;50.954;6.968;2022-09-04T00:28:48;100864.75;;;25.34;47.13
18784;BME280;9520;50.954;6.968;2022-09-04T00:29:15;100861.63;;;25.27;46.98
18784;BME280;9520;50.954;6.968;2022-09-04T00:29:43;100855.25;;;25.28;46.49
18784;BME280;9520;50.954;6.968;2022-09-04T00:30:13;100863.63;;;25.36;47.43
18784;BME280;9520;50.954;6.968;2022-09-04T00:30:39;100860.94;;;25.36;46.93
18784;BME280;9520;50.954;6.968;2022-09-04T00:31:17;100874.34;;;25.38;47.23
18784;BME280;9520;50.954;6.968;2022-09-04T00:31:49;100864.50;;;25.37;46.14
18784;BME280;9520;50.954;6.968;2022-09-04T00:32:18;100862.56;;;25.39;46.18
18784;BME280;9520;50.954;6.968;2022-09-04T00:32:52;100863.78;;;25.35;45.69
18784;BME280;9520;50.954;6.968;2022-09-04T00:33:19;100862.91;;;25.34;46.09
18784;BME280;9520;50.954;6.968;2022-09-04T00:33:49;100863.44;;;25.27;45.35
18784;BME280;9520;50.954;6.968;2022-09-04T00:34:20;100868.97;;;25.25;44.61
18784;BME280;9520;50.954;6.968;2022-09-04T00:35:02;100868.41;;;25.33;45.66
18784;BME280;9520;50.954;6.968;2022-09-04T00:35:27;100874.44;;;25.36;47.12
18784;BME280;9520;50.954;6.968;2022-09-04T00:35:54;100867.19;;;25.37;46.91
18784;BME280;9520;50.954;6.968;2022-09-04T00:36:21;100871.00;;;25.34;45.31
18784;BME280;9520;50.954;6.968;2022-09-04T00:36:48;100863.44;;;25.27;47.43
18784;BME280;9520;50.954;6.968;2022-09-04T00:37:14;100872.31;;;25.29;45.79
18784;BME280;9520;50.954;6.968;2022-09-04T00:37:40;100867.34;;;25.23;45.67
18784;BME280;9520;50.954;6.968;2022-09-04T00:38:08;100868.31;;;25.22;45.18
18784;BME280;9520;50.954;6.968;2022-09-04T00:39:22;100867.94;;;25.15;46.68
18784;BME280;9520;50.954;6.968;2022-09-04T00:39:49;100871.59;;;25.14;45.60
18784;BME280;9520;50.954;6.968;2022-09-04T00:40:22;100856.81;;;25.07;44.90
18784;BME280;9520;50.954;6.968;2022-09-04T00:40:52;100867.16;;;25.13;45.67
18784;BME280;9520;50.954;6.968;2022-09-04T00:41:24;100869.47;;;24.94;46.31
18784;BME280;9520;50.954;6.968;2022-09-04T00:41:58;100873.66;;;24.98;45.97
18784;BME280;9520;50.954;6.968;2022-09-04T00:42:36;100854.34;;;24.91;46.01
18784;BME280;9520;50.954;6.968;2022-09-04T00:43:23;100868.81;;;25.03;45.74
18784;BME280;9520;50.954;6.968;2022-09-04T00:44:02;100852.94;;;24.99;46.92
18784;BME280;9520;50.954;6.968;2022-09-04T00:44:40;100869.97;;;25.12;46.53
18784;BME280;9520;50.954;6.968;2022-09-04T00:45:14;100870.97;;;25.11;45.25
18784;BME280;9520;50.954;6.968;2022-09-04T00:45:54;100871.31;;;25.06;44.42
18784;BME280;9520;50.954;6.968;2022-09-04T00:46:53;100870.78;;;25.01;45.46
18784;BME280;9520;50.954;6.968;2022-09-04T00:47:40;100865.47;;;25.00;45.03
18784;BME280;9520;50.954;6.968;2022-09-04T00:48:25;100871.06;;;25.09;46.92
18784;BME280;9520;50.954;6.968;2022-09-04T00:49:11;100877.44;;;25.08;45.97
18784;BME280;9520;50.954;6.968;2022-09-04T00:51:32;100867.53;;;24.96;46.55
18784;BME280;9520;50.954;6.968;2022-09-04T00:52:05;100866.88;;;24.92;46.20
18784;BME280;9520;50.954;6.968;2022-09-04T00:52:47;100880.91;;;24.98;45.52
18784;BME280;9520;50.954;6.968;2022-09-04T00:53:38;100876.59;;;24.95;45.75
18784;BME280;9520;50.954;6.968;2022-09-04T00:54:23;100873.66;;;24.85;45.62
18784;BME280;9520;50.954;6.968;2022-09-04T00:55:03;100879.41;;;24.81;45.17
18784;BME280;9520;50.954;6.968;2022-09-04T00:55:43;100868.78;;;24.78;45.08
18784;BME280;9520;50.954;6.968;2022-09-04T00:56:25;100866.97;;;24.78;45.79
18784;BME280;9520;50.954;6.968;2022-09-04T00:58:03;100865.22;;;24.77;46.20
18784;BME280;9520;50.954;6.968;2022-09-04T00:58:38;100865.03;;;24.80;46.46
18784;BME280;9520;50.954;6.968;2022-09-04T00:59:17;100874.63;;;24.72;47.80
18784;BME280;9520;50.954;6.968;2022-09-04T01:00:01;100869.91;;;24.75;47.59
18784;BME280;9520;50.954;6.968;2022-09-04T01:00:25;100863.72;;;24.73;47.35
18784;BME280;9520;50.954;6.968;2022-09-04T01:00:48;100871.81;;;24.73;45.81
18784;BME280;9520;50.954;6.968;2022-09-04T01:01:13;100864.59;;;24.74;45.89
18784;BME280;9520;50.954;6.968;2022-09-04T01:01:39;100869.47;;;24.69;47.25
18784;BME280;9520;50.954;6.968;2022-09-04T01:02:08;100869.22;;;24.72;46.69
18784;BME280;9520;50.954;6.968;2022-09-04T01:02:47;100870.09;;;24.72;46.96
18784;BME280;9520;50.954;6.968;2022-09-04T01:03:26;100853.81;;;24.61;45.54
18784;BME280;9520;50.954;6.968;2022-09-04T01:04:40;100869.56;;;24.67;45.41
18784;BME280;9520;50.954;6.968;2022-09-04T01:05:17;100855.53;;;24.49;46.05
18784;BME280;9520;50.954;6.968;2022-09-04T01:06:00;100863.94;;;24.58;45.50
18784;BME280;9520;50.954;6.968;2022-09-04T01:06:30;100875.72;;;24.69;46.55
18784;BME280;9520;50.954;6.968;2022-09-04T01:07:06;100879.28;;;24.70;46.50
18784;BME280;9520;50.954;6.968;2022-09-04T01:07:48;100871.72;;;24.75;47.02
18784;BME280;9520;50.954;6.968;2022-09-04T01:08:26;100874.19;;;24.78;48.19
18784;BME280;9520;50.954;6.968;2022-09-04T01:09:04;100879.19;;;24.71;46.22
18784;BME280;9520;50.954;6.968;2022-09-04T01:09:42;100879.50;;;24.67;47.16
18784;BME280;9520;50.954;6.968;2022-09-04T01:10:21;100877.97;;;24.63;47.84
18784;BME280;9520;50.954;6.968;2022-09-04T01:10:50;100877.78;;;24.66;46.36
18784;BME280;9520;50.954;6.968;2022-09-04T01:11:26;100870.41;;;24.42;48.89
18784;BME280;9520;50.954;6.968;2022-09-04T01:12:03;100876.16;;;24.50;47.55
18784;BME280;9520;50.954;6.968;2022-09-04T01:12:34;100878.53;;;24.55;47.52
18784;BME280;9520;50.954;6.968;2022-09-04T01:13:02;100876.28;;;24.62;46.51
18784;BME280;9520;50.954;6.968;2022-09-04T01:13:33;100873.03;;;24.57;45.64
18784;BME280;9520;50.954;6.968;2022-09-04T01:14:07;100872.72;;;24.61;47.48
18784;BME280;9520;50.954;6.968;2022-09-04T01:14:37;100870.00;;;24.61;46.81
18784;BME280;9520;50.954;6.968;2022-09-04T01:15:09;100873.88;;;24.57;47.01
18784;BME280;9520;50.954;6.968;2022-09-04T01:15:39;100880.56;;;24.64;46.40
18784;BME280;9520;50.954;6.968;2022-09-04T01:16:08;100877.00;;;24.64;45.82
18784;BME280;9520;50.954;6.968;2022-09-04T01:16:33;100878.66;;;24.66;46.92
18784;BME280;9520;50.954;6.968;2022-09-04T01:17:05;100880.25;;;24.69;47.41
18784;BME280;9520;50.954;6.968;2022-09-04T01:17:34;100885.53;;;24.70;47.09
18784;BME280;9520;50.954;6.968;2022-09-04T01:18:03;100881.13;;;24.69;46.31
18784;BME280;9520;50.954;6.968;2022-09-04T01:18:34;100882.94;;;24.69;48.14
18784;BME280;9520;50.954;6.968;2022-09-04T01:19:03;100885.88;;;24.66;48.07
18784;BME280;9520;50.954;6.968;2022-09-04T01:19:45;100886.75;;;24.66;47.97
18784;BME280;9520;50.954;6.968;2022-09-04T01:20:15;100885.97;;;24.51;47.23
18784;BME280;9520;50.954;6.968;2022-09-04T01:21:01;100883.16;;;24.53;46.64
18784;BME280;9520;50.954;6.968;2022-09-04T01:21:56;100878.31;;;24.45;46.37
18784;BME280;9520;50.954;6.968;2022-09-04T01:22:32;100883.81;;;24.57;48.04
18784;BME280;9520;50.954;6.968;2022-09-04T01:23:11;100875.19;;;24.51;47.95
18784;BME280;9520;50.954;6.968;2022-09-04T01:23:51;100879.59;;;24.40;48.38
18784;BME280;9520;50.954;6.968;2022-09-04T01:24:35;100879.69;;;24.38;48.06
18784;BME280;9520;50.954;6.968;2022-09-04T01:25:03;100882.41;;;24.51;48.71
18784;BME280;9520;50.954;6.968;2022-09-04T01:25:47;100884.78;;;24.56;48.23
18784;BME280;9520;50.954;6.968;2022-09-04T01:26:18;100880.13;;;24.58;48.77
18784;BME280;9520;50.954;6.968;2022-09-04T01:26:46;100886.63;;;24.55;49.39
18784;BME280;9520;50.954;6.968;2022-09-04T01:27:17;100876.88;;;24.52;46.95
18784;BME280;9520;50.954;6.968;2022-09-04T01:27:49;100880.59;;;24.51;46.86
18784;BME280;9520;50.954;6.968;2022-09-04T01:28:19;100886.81;;;24.52;46.51
18784;BME280;9520;50.954;6.968;2022-09-04T01:28:57;100879.91;;;24.48;47.23
18784;BME280;9520;50.954;6.968;2022-09-04T01:29:27;100867.63;;;24.44;47.35
18784;BME280;9520;50.954;6.968;2022-09-04T01:30:03;100889.50;;;24.52;47.23
18784;BME280;9520;50.954;6.968;2022-09-04T01:30:30;100882.28;;;24.52;47.47
18784;BME280;9520;50.954;6.968;2022-09-04T01:30:59;100883.81;;;24.57;46.99
18784;BME280;9520;50.954;6.968;2022-09-04T01:31:32;100885.84;;;24.53;47.24
18784;BME280;9520;50.954;6.968;2022-09-04T01:32:03;100890.94;;;24.45;45.94
18784;BME280;9520;50.954;6.968;2022-09-04T01:32:40;100883.59;;;24.47;47.58
18784;BME280;9520;50.954;6.968;2022-09-04T01:33:08;100887.25;;;24.46;47.27
18784;BME280;9520;50.954;6.968;2022-09-04T01:33:39;100879.28;;;24.44;46.57
18784;BME280;9520;50.954;6.968;2022-09-04T01:34:15;100886.81;;;24.52;45.78
18784;BME280;9520;50.954;6.968;2022-09-04T01:34:50;100876.66;;;24.43;46.79
18784;BME280;9520;50.954;6.968;2022-09-04T01:35:21;100894.16;;;24.50;47.47
18784;BME280;9520;50.954;6.968;2022-09-04T01:35:51;100890.69;;;24.35;48.23
18784;BME280;9520;50.954;6.968;2022-09-04T01:36:21;100891.34;;;24.39;47.98
18784;BME280;9520;50.954;6.968;2022-09-04T01:36:55;100883.06;;;24.42;46.48
18784;BME280;9520;50.954;6.968;2022-09-04T01:37:29;100892.44;;;24.49;46.66
18784;BME280;9520;50.954;6.968;2022-09-04T01:38:01;100890.69;;;24.48;45.71
18784;BME280;9520;50.954;6.968;2022-09-04T01:38:32;100896.63;;;24.53;47.98
18784;BME280;9520;50.954;6.968;2022-09-04T01:38:55;100890.19;;;24.56;48.55
18784;BME280;9520;50.954;6.968;2022-09-04T01:39:21;100896.44;;;24.56;49.50
18784;BME280;9520;50.954;6.968;2022-09-04T01:39:50;100887.25;;;24.59;49.73
18784;BME280;9520;50.954;6.968;2022-09-04T01:40:24;100869.13;;;24.48;47.90
18784;BME280;9520;50.954;6.968;2022-09-04T01:41:02;100890.81;;;24.59;48.98
18784;BME280;9520;50.954;6.968;2022-09-04T01:41:29;100900.84;;;24.57;46.57
18784;BME280;9520;50.954;6.968;2022-09-04T01:42:02;100886.63;;;24.55;47.13
18784;BME280;9520;50.954;6.968;2022-09-04T01:42:32;100894.47;;;24.58;47.21
18784;BME280;9520;50.954;6.968;2022-09-04T01:43:02;100891.06;;;24.56;47.48
18784;BME280;9520;50.954;6.968;2022-09-04T01:43:26;100897.00;;;24.61;48.43
18784;BME280;9520;50.954;6.968;2022-09-04T01:43:49;100894.28;;;24.61;47.71
18784;BME280;9520;50.954;6.968;2022-09-04T01:44:11;100897.84;;;24.62;47.43
18784;BME280;9520;50.954;6.968;2022-09-04T01:44:34;100890.59;;;24.62;47.99
18784;BME280;9520;50.954;6.968;2022-09-04T01:44:57;100895.03;;;24.63;49.10
18784;BME280;9520;50.954;6.968;2022-09-04T01:45:28;100897.63;;;24.65;48.78
18784;BME280;9520;50.954;6.968;2022-09-04T01:46:30;100895.44;;;24.57;45.49
18784;BME280;9520;50.954;6.968;2022-09-04T01:47:07;100901.94;;;24.55;46.31
18784;BME280;9520;50.954;6.968;2022-09-04T01:47:36;100898.06;;;24.46;48.47
18784;BME280;9520;50.954;6.968;2022-09-04T01:48:04;100886.91;;;24.38;47.66
18784;BME280;9520;50.954;6.968;2022-09-04T01:48:40;100899.47;;;24.51;48.68
18784;BME280;9520;50.954;6.968;2022-09-04T01:49:11;100908.63;;;24.49;49.02
18784;BME280;9520;50.954;6.968;2022-09-04T01:49:38;100900.63;;;24.47;47.91
18784;BME280;9520;50.954;6.968;2022-09-04T01:50:06;100907.75;;;24.48;48.74
18784;BME280;9520;50.954;6.968;2022-09-04T01:50:31;100895.13;;;24.49;49.12
18784;BME280;9520;50.954;6.968;2022-09-04T01:50:57;100872.88;;;24.33;49.08
18784;BME280;9520;50.954;6.968;2022-09-04T01:51:27;100909.38;;;24.51;47.92
18784;BME280;9520;50.954;6.968;2022-09-04T01:52:00;100898.69;;;24.49;47.70
18784;BME280;9520;50.954;6.968;2022-09-04T01:52:35;100908.63;;;24.49;47.37
18784;BME280;9520;50.954;6.968;2022-09-04T01:53:03;100901.28;;;24.51;47.54
18784;BME280;9520;50.954;6.968;2022-09-04T01:53:31;100904.88;;;24.51;48.72
18784;BME280;9520;50.954;6.968;2022-09-04T01:54:10;100891.34;;;24.39;47.83
18784;BME280;9520;50.954;6.968;2022-09-04T01:54:43;100908.28;;;24.41;48.19
18784;BME280;9520;50.954;6.968;2022-09-04T01:55:15;100906.16;;;24.46;48.21
18784;BME280;9520;50.954;6.968;2022-09-04T01:55:45;100904.09;;;24.49;49.07
18784;BME280;9520;50.954;6.968;2022-09-04T01:56:17;100903.00;;;24.52;48.66
18784;BME280;9520;50.954;6.968;2022-09-04T01:56:44;100908.19;;;24.55;49.29
18784;BME280;9520;50.954;6.968;2022-09-04T01:57:15;100905.69;;;24.52;49.12
18784;BME280;9520;50.954;6.968;2022-09-04T01:57:52;100912.94;;;24.51;47.05
18784;BME280;9520;50.954;6.968;2022-09-04T01:58:24;100915.75;;;24.50;48.54
18784;BME280;9520;50.954;6.968;2022-09-04T01:58:55;100910.44;;;24.36;48.45
18784;BME280;9520;50.954;6.968;2022-09-04T01:59:25;100902.22;;;24.37;48.54
18784;BME280;9520;50.954;6.968;2022-09-04T02:00:00;100903.09;;;24.38;48.47
18784;BME280;9520;50.954;6.968;2022-09-04T02:00:25;100912.50;;;24.45;48.20
18784;BME280;9520;50.954;6.968;2022-09-04T02:00:56;100903.53;;;24.44;48.89
18784;BME280;9520;50.954;6.968;2022-09-04T02:01:29;100911.19;;;24.38;49.65
18784;BME280;9520;50.954;6.968;2022-09-04T02:02:00;100918.28;;;24.26;49.06
18784;BME280;9520;50.954;6.968;2022-09-04T02:02:27;100912.47;;;24.32;50.02
18784;BME280;9520;50.954;6.968;2022-09-04T02:02:55;100910.31;;;24.37;49.72
18784;BME280;9520;50.954;6.968;2022-09-04T02:03:25;100913.69;;;24.41;49.06
18784;BME280;9520;50.954;6.968;2022-09-04T02:03:51;100912.59;;;24.43;48.57
18784;BME280;9520;50.954;6.968;2022-09-04T02:04:22;100918.94;;;24.42;48.12
18784;BME280;9520;50.954;6.968;2022-09-04T02:04:52;100912.59;;;24.43;47.73
18784;BME280;9520;50.954;6.968;2022-09-04T02:05:20;100914.22;;;24.46;48.25
18784;BME280;9520;50.954;6.968;2022-09-04T02:05:56;100915.75;;;24.50;48.77
18784;BME280;9520;50.954;6.968;2022-09-04T02:06:30;100915.09;;;24.46;49.99
18784;BME280;9520;50.954;6.968;2022-09-04T02:07:04;100910.31;;;24.25;48.65
18784;BME280;9520;50.954;6.968;2022-09-04T02:07:32;100912.91;;;24.26;47.94
18784;BME280;9520;50.954;6.968;2022-09-04T02:08:03;100913.56;;;24.30;49.19
18784;BME280;9520;50.954;6.968;2022-09-04T02:08:45;100922.97;;;24.37;48.95
18784;BME280;9520;50.954;6.968;2022-09-04T02:09:22;100915.72;;;24.37;49.20
18784;BME280;9520;50.954;6.968;2022-09-04T02:09:53;100927.81;;;24.32;49.71
18784;BME280;9520;50.954;6.968;2022-09-04T02:10:28;100918.28;;;24.26;47.46
18784;BME280;9520;50.954;6.968;2022-09-04T02:10:55;100916.38;;;24.14;48.39
18784;BME280;9520;50.954;6.968;2022-09-04T02:11:23;100919.75;;;24.18;49.06
18784;BME280;9520;50.954;6.968;2022-09-04T02:11:55;100924.75;;;24.24;49.84
18784;BME280;9520;50.954;6.968;2022-09-04T02:12:29;100921.19;;;24.23;49.21
18784;BME280;9520;50.954;6.968;2022-09-04T02:13:08;100921.94;;;24.25;49.45
18784;BME280;9520;50.954;6.968;2022-09-04T02:13:43;100924.13;;;24.33;50.18
18784;BME280;9520;50.954;6.968;2022-09-04T02:14:31;100918.72;;;24.33;48.74
18784;BME280;9520;50.954;6.968;2022-09-04T02:15:02;100924.13;;;24.33;49.85
18784;BME280;9520;50.954;6.968;2022-09-04T02:15:31;100925.28;;;24.29;50.13
18784;BME280;9520;50.954;6.968;2022-09-04T02:16:05;100924.56;;;24.27;48.76
18784;BME280;9520;50.954;6.968;2022-09-04T02:16:42;100925.94;;;24.20;49.80
18784;BME280;9520;50.954;6.968;2022-09-04T02:17:09;100919.16;;;24.27;48.72
18784;BME280;9520;50.954;6.968;2022-09-04T02:17:38;100927.91;;;24.30;50.12
18784;BME280;9520;50.954;6.968;2022-09-04T02:18:08;100927.81;;;24.32;48.40
18784;BME280;9520;50.954;6.968;2022-09-04T02:18:46;100920.56;;;24.32;49.59
18784;BME280;9520;50.954;6.968;2022-09-04T02:19:19;100919.72;;;24.32;49.23
18784;BME280;9520;50.954;6.968;2022-09-04T02:20:00;100933.75;;;24.37;48.19
18784;BME280;9520;50.954;6.968;2022-09-04T02:20:26;100929.97;;;24.39;48.07
18784;BME280;9520;50.954;6.968;2022-09-04T02:20:53;100930.59;;;24.43;49.05
18784;BME280;9520;50.954;6.968;2022-09-04T02:21:24;100941.06;;;24.35;48.01
18784;BME280;9520;50.954;6.968;2022-09-04T02:21:50;100932.09;;;24.34;49.70
18784;BME280;9520;50.954;6.968;2022-09-04T02:22:23;100936.44;;;24.37;49.97
18784;BME280;9520;50.954;6.968;2022-09-04T02:22:55;100939.88;;;24.39;49.63
18784;BME280;9520;50.954;6.968;2022-09-04T02:23:23;100937.19;;;24.39;49.86
18784;BME280;9520;50.954;6.968;2022-09-04T02:23:59;100938.38;;;24.35;49.66
18784;BME280;9520;50.954;6.968;2022-09-04T02:24:29;100943.66;;;24.36;48.03
18784;BME280;9520;50.954;6.968;2022-09-04T02:25:00;100931.06;;;24.37;48.83
18784;BME280;9520;50.954;6.968;2022-09-04T02:25:28;100940.66;;;24.41;49.31
18784;BME280;9520;50.954;6.968;2022-09-04T02:26:02;100936.44;;;24.37;47.56
18784;BME280;9520;50.954;6.968;2022-09-04T02:26:34;100932.66;;;24.39;47.75
18784;BME280;9520;50.954;6.968;2022-09-04T02:27:04;100941.16;;;24.33;49.62
18784;BME280;9520;50.954;6.968;2022-09-04T02:27:34;100938.38;;;24.35;48.76
18784;BME280;9520;50.954;6.968;2022-09-04T02:28:13;100931.06;;;24.37;49.60
18784;BME280;9520;50.954;6.968;2022-09-04T02:28:46;100934.59;;;24.37;48.35
18784;BME280;9520;50.954;6.968;2022-09-04T02:29:22;100933.94;;;24.34;50.17
18784;BME280;9520;50.954;6.968;2022-09-04T02:29:52;100929.72;;;24.30;50.90
18784;BME280;9520;50.954;6.968;2022-09-04T02:30:19;100944.06;;;24.30;49.63
18784;BME280;9520;50.954;6.968;2022-09-04T02:30:44;100923.56;;;24.28;48.68
18784;BME280;9520;50.954;6.968;2022-09-04T02:31:22;100935.66;;;24.35;48.98
18784;BME280;9520;50.954;6.968;2022-09-04T02:31:51;100941.72;;;24.38;49.24
18784;BME280;9520;50.954;6.968;2022-09-04T02:32:18;100932.75;;;24.38;48.41
18784;BME280;9520;50.954;6.968;2022-09-04T02:32:45;100937.09;;;24.40;49.28
18784;BME280;9520;50.954;6.968;2022-09-04T02:33:15;100937.72;;;24.31;50.70
18784;BME280;9520;50.954;6.968;2022-09-04T02:33:46;100929.78;;;24.16;48.50
18784;BME280;9520;50.954;6.968;2022-09-04T02:34:13;100923.59;;;24.14;48.37
18784;BME280;9520;50.954;6.968;2022-09-04T02:34:46;100927.44;;;24.24;48.69
18784;BME280;9520;50.954;6.968;2022-09-04T02:35:16;100940.50;;;24.30;49.44
18784;BME280;9520;50.954;6.968;2022-09-04T02:35:44;100934.34;;;24.28;47.87
18784;BME280;9520;50.954;6.968;2022-09-04T02:36:12;100935.91;;;24.32;49.25
18784;BME280;9520;50.954;6.968;2022-09-04T02:36:42;100934.91;;;24.33;48.09
18784;BME280;9520;50.954;6.968;2022-09-04T02:37:16;100930.81;;;24.27;47.39
18784;BME280;9520;50.954;6.968;2022-09-04T02:37:53;100942.13;;;24.32;48.31
18784;BME280;9520;50.954;6.968;2022-09-04T02:38:26;100934.03;;;24.32;49.04
18784;BME280;9520;50.954;6.968;2022-09-04T02:38:57;100933.50;;;24.27;48.50
18784;BME280;9520;50.954;6.968;2022-09-04T02:39:37;100933.94;;;24.21;49.23
18784;BME280;9520;50.954;6.968;2022-09-04T02:40:09;100939.97;;;24.25;49.40
18784;BME280;9520;50.954;6.968;2022-09-04T02:40:43;100943.44;;;24.27;48.57
18784;BME280;9520;50.954;6.968;2022-09-04T02:41:13;100940.66;;;24.14;50.84
18784;BME280;9520;50.954;6.968;2022-09-04T02:41:47;100941.50;;;24.15;50.02
18784;BME280;9520;50.954;6.968;2022-09-04T02:42:18;100935.09;;;24.17;49.27
18784;BME280;9520;50.954;6.968;2022-09-04T02:42:53;100934.97;;;24.19;48.52
18784;BME280;9520;50.954;6.968;2022-09-04T02:43:32;100937.59;;;24.20;49.07
18784;BME280;9520;50.954;6.968;2022-09-04T02:44:06;100943.06;;;24.19;48.07
18784;BME280;9520;50.954;6.968;2022-09-04T02:44:41;100935.25;;;24.14;47.62
18784;BME280;9520;50.954;6.968;2022-09-04T02:45:16;100936.81;;;24.18;49.20
18784;BME280;9520;50.954;6.968;2022-09-04T02:45:44;100910.75;;;24.04;48.41
18784;BME280;9520;50.954;6.968;2022-09-04T02:46:12;100941.88;;;24.23;48.55
18784;BME280;9520;50.954;6.968;2022-09-04T02:46:46;100933.06;;;24.21;46.82
18784;BME280;9520;50.954;6.968;2022-09-04T02:47:18;100938.63;;;24.18;46.97
18784;BME280;9520;50.954;6.968;2022-09-04T02:47:47;100938.44;;;24.21;48.72
18784;BME280;9520;50.954;6.968;2022-09-04T02:48:14;100942.75;;;24.23;48.88
18784;BME280;9520;50.954;6.968;2022-09-04T02:48:49;100942.66;;;24.25;47.71
18784;BME280;9520;50.954;6.968;2022-09-04T02:49:22;100933.34;;;24.16;47.69
18784;BME280;9520;50.954;6.968;2022-09-04T02:49:58;100943.63;;;24.24;49.02
18784;BME280;9520;50.954;6.968;2022-09-04T02:50:35;100938.22;;;24.24;50.11
18784;BME280;9520;50.954;6.968;2022-09-04T02:51:12;100945.91;;;24.30;49.44
18784;BME280;9520;50.954;6.968;2022-09-04T02:51:50;100947.66;;;24.31;49.35
18784;BME280;9520;50.954;6.968;2022-09-04T02:52:25;100941.69;;;24.26;46.84
18784;BME280;9520;50.954;6.968;2022-09-04T02:53:03;100945.34;;;24.25;47.82
18784;BME280;9520;50.954;6.968;2022-09-04T02:53:37;100942.56;;;24.26;48.53
18784;BME280;9520;50.954;6.968;2022-09-04T02:54:07;100936.63;;;24.21;48.06
18784;BME280;9520;50.954;6.968;2022-09-04T02:54:45;100937.25;;;24.25;48.68
18784;BME280;9520;50.954;6.968;2022-09-04T02:55:16;100941.78;;;24.24;49.05
18784;BME280;9520;50.954;6.968;2022-09-04T02:55:54;100941.88;;;24.23;48.61